createdAt,value
2023-01-10T00:00:32.094Z,13.70
2023-01-10T00:02:59.402Z,12.40
2023-01-10T00:05:26.614Z,13.52
2023-01-10T00:07:53.973Z,13.15
2023-01-10T00:10:21.179Z,12.68
2023-01-10T00:13:06.846Z,12.18
2023-01-10T00:15:34.884Z,10.48
2023-01-10T00:18:02.109Z,10.55
2023-01-10T00:20:29.318Z,9.40
2023-01-10T00:22:56.454Z,11.13
2023-01-10T00:25:23.906Z,10.27
2023-01-10T00:27:57.783Z,9.00
2023-01-10T00:30:25.101Z,10.57
2023-01-10T00:32:52.237Z,10.25
2023-01-10T00:35:20.090Z,10.48
2023-01-10T00:37:47.500Z,10.10
2023-01-10T00:40:14.829Z,11.73
2023-01-10T00:43:00.476Z,9.15
2023-01-10T00:45:27.662Z,8.52
2023-01-10T00:47:54.733Z,8.70
2023-01-10T00:50:21.900Z,8.50
2023-01-10T00:52:49.159Z,6.80
2023-01-10T00:55:16.299Z,8.32
2023-01-10T00:57:43.511Z,6.55
2023-01-10T01:00:12.148Z,7.20
2023-01-10T01:02:39.350Z,7.57
2023-01-10T01:05:06.831Z,7.03
2023-01-10T01:07:33.933Z,6.65
2023-01-10T01:10:19.444Z,5.60
2023-01-10T01:12:46.677Z,6.00
2023-01-10T01:15:13.818Z,5.60
2023-01-10T01:17:40.982Z,5.47
2023-01-10T01:20:09.017Z,4.38
2023-01-10T01:22:36.393Z,4.47
2023-01-10T01:25:04.658Z,4.03
2023-01-10T01:27:31.957Z,3.60
2023-01-10T01:29:59.168Z,4.40
2023-01-10T01:32:26.418Z,3.28
2023-01-10T01:34:53.746Z,3.20
2023-01-10T01:37:20.991Z,3.17
2023-01-10T01:39:48.241Z,3.13
2023-01-10T01:42:26.421Z,3.33
2023-01-10T01:45:08.906Z,2.80
2023-01-10T01:47:56.278Z,4.17
2023-01-10T01:50:26.713Z,4.15
2023-01-10T01:52:55.713Z,4.15
2023-01-10T01:55:25.630Z,4.10
2023-01-10T01:57:53.439Z,3.78
2023-01-10T02:00:20.699Z,5.53
2023-01-10T02:03:02.170Z,4.00
2023-01-10T02:05:31.057Z,4.03
2023-01-10T02:07:59.135Z,4.45
2023-01-10T02:10:40.082Z,4.55
2023-01-10T02:13:08.929Z,3.97
2023-01-10T02:15:36.165Z,4.15
2023-01-10T02:18:04.453Z,5.30
2023-01-10T02:20:35.125Z,3.78
2023-01-10T02:23:02.268Z,3.85
2023-01-10T02:25:48.057Z,4.38
2023-01-10T02:28:15.204Z,4.80
2023-01-10T02:30:51.555Z,3.75
2023-01-10T02:33:18.708Z,3.95
2023-01-10T02:36:05.080Z,3.95
2023-01-10T02:38:35.251Z,3.90
2023-01-10T02:41:07.135Z,4.45
2023-01-10T02:43:36.304Z,6.07
2023-01-10T02:46:08.517Z,4.78
2023-01-10T02:48:35.666Z,5.70
2023-01-10T02:51:04.705Z,7.80
2023-01-10T02:53:35.875Z,6.05
2023-01-10T02:56:21.825Z,6.65
2023-01-10T02:58:48.916Z,6.90
2023-01-10T03:01:25.199Z,8.05
2023-01-10T03:04:11.250Z,8.40
2023-01-10T03:06:46.814Z,7.50
2023-01-10T03:09:13.930Z,8.25
2023-01-10T03:11:43.989Z,8.68
2023-01-10T03:14:19.569Z,7.03
2023-01-10T03:16:52.580Z,8.75
2023-01-10T03:19:24.326Z,8.68
2023-01-10T03:21:55.065Z,8.50
2023-01-10T03:24:26.049Z,8.18
2023-01-10T03:26:58.344Z,8.68
2023-01-10T03:29:29.573Z,7.90
2023-01-10T03:31:57.999Z,9.10
2023-01-10T03:34:25.692Z,8.75
2023-01-10T03:36:52.845Z,7.70
2023-01-10T03:39:24.432Z,7.65
2023-01-10T03:42:00.141Z,8.25
2023-01-10T03:44:45.353Z,9.25
2023-01-10T03:47:32.765Z,7.32
2023-01-10T03:50:09.032Z,8.20
2023-01-10T03:52:36.603Z,7.40
2023-01-10T03:55:05.416Z,7.97
2023-01-10T03:57:32.704Z,7.95
2023-01-10T04:00:00.376Z,7.97
2023-01-10T04:02:28.414Z,7.25
2023-01-10T04:04:55.558Z,7.13
2023-01-10T04:07:22.929Z,7.20
2023-01-10T04:09:50.114Z,7.38
2023-01-10T04:12:17.778Z,7.90
2023-01-10T04:14:47.921Z,6.95
2023-01-10T04:17:15.733Z,7.95
2023-01-10T04:19:43.189Z,7.35
2023-01-10T04:22:11.052Z,7.15
2023-01-10T04:24:38.566Z,7.88
2023-01-10T04:27:05.839Z,7.40
2023-01-10T04:29:33.042Z,7.63
2023-01-10T04:32:01.059Z,7.63
2023-01-10T04:34:28.285Z,7.95
2023-01-10T04:36:55.518Z,6.97
2023-01-10T04:39:22.623Z,7.18
2023-01-10T04:41:49.910Z,7.18
2023-01-10T04:44:17.067Z,6.95
2023-01-10T04:46:44.176Z,6.78
2023-01-10T04:49:11.373Z,7.65
2023-01-10T04:51:38.661Z,6.40
2023-01-10T04:54:05.829Z,6.20
2023-01-10T04:56:32.979Z,7.47
2023-01-10T04:59:00.150Z,7.43
2023-01-10T05:01:27.514Z,7.40
2023-01-10T05:03:55.412Z,6.97
2023-01-10T05:06:24.044Z,6.20
2023-01-10T05:08:51.245Z,7.30
2023-01-10T05:11:18.578Z,6.35
2023-01-10T05:13:47.920Z,7.18
2023-01-10T05:16:15.438Z,7.07
2023-01-10T05:18:42.606Z,7.03
2023-01-10T05:21:13.993Z,6.78
2023-01-10T05:23:41.181Z,7.20
2023-01-10T05:26:08.319Z,8.48
2023-01-10T05:28:35.406Z,6.60
2023-01-10T05:31:02.703Z,5.85
2023-01-10T05:33:58.390Z,7.18
2023-01-10T05:36:25.525Z,6.53
2023-01-10T05:38:52.700Z,7.45
2023-01-10T05:41:20.273Z,6.43
2023-01-10T05:43:48.009Z,6.43
2023-01-10T05:46:15.650Z,8.60
2023-01-10T05:48:42.896Z,6.65
2023-01-10T05:51:10.062Z,7.03
2023-01-10T05:53:37.389Z,8.23
2023-01-10T05:56:04.931Z,6.78
2023-01-10T05:58:32.233Z,6.88
2023-01-10T06:00:59.781Z,6.25
2023-01-10T06:03:27.646Z,6.55
2023-01-10T06:05:55.549Z,6.80
2023-01-10T06:08:23.206Z,6.78
2023-01-10T06:10:52.265Z,6.85
2023-01-10T06:13:19.475Z,7.13
2023-01-10T06:15:46.879Z,6.60
2023-01-10T06:18:14.272Z,6.90
2023-01-10T06:20:41.811Z,7.45
2023-01-10T06:23:08.955Z,6.43
2023-01-10T06:25:40.235Z,6.53
2023-01-10T06:28:08.266Z,8.27
2023-01-10T06:30:35.638Z,7.38
2023-01-10T06:33:03.670Z,7.78
2023-01-10T06:35:30.923Z,7.43
2023-01-10T06:37:58.544Z,8.38
2023-01-10T06:40:26.160Z,7.28
2023-01-10T06:42:53.314Z,7.28
2023-01-10T06:45:20.874Z,7.53
2023-01-10T06:47:48.088Z,7.97
2023-01-10T06:50:15.252Z,8.73
2023-01-10T06:52:42.350Z,11.70
2023-01-10T06:55:09.554Z,8.25
2023-01-10T06:57:38.277Z,7.90
2023-01-10T07:00:10.624Z,9.85
2023-01-10T07:02:38.118Z,12.17
2023-01-10T07:05:05.378Z,11.65
2023-01-10T07:07:32.539Z,11.68
2023-01-10T07:09:59.765Z,13.43
2023-01-10T07:12:27.027Z,13.13
2023-01-10T07:14:54.249Z,12.43
2023-01-10T07:17:21.422Z,11.48
2023-01-10T07:19:48.632Z,12.95
2023-01-10T07:22:15.727Z,13.18
2023-01-10T07:24:42.973Z,14.88
2023-01-10T07:27:10.047Z,13.00
2023-01-10T07:29:37.181Z,12.63
2023-01-10T07:32:04.327Z,14.32
2023-01-10T07:34:31.496Z,15.75
2023-01-10T07:36:58.657Z,14.02
2023-01-10T07:39:25.843Z,14.00
2023-01-10T07:41:53.446Z,14.77
2023-01-10T07:44:20.613Z,18.98
2023-01-10T07:46:47.781Z,16.95
2023-01-10T07:49:14.961Z,15.43
2023-01-10T07:51:42.203Z,17.00
2023-01-10T07:54:09.376Z,14.77
2023-01-10T07:56:36.512Z,16.80
2023-01-10T07:59:03.667Z,18.92
2023-01-10T08:01:30.941Z,16.38
2023-01-10T08:03:58.900Z,17.58
2023-01-10T08:06:26.048Z,16.75
2023-01-10T08:08:53.206Z,17.02
2023-01-10T08:11:20.482Z,17.05
2023-01-10T08:13:47.700Z,16.75
2023-01-10T08:16:15.684Z,16.27
2023-01-10T08:18:43.290Z,14.38
2023-01-10T08:21:10.809Z,14.38
2023-01-10T08:23:38.380Z,19.67
2023-01-10T08:26:05.898Z,16.88
2023-01-10T08:28:33.379Z,16.67
2023-01-10T08:31:05.615Z,15.98
2023-01-10T08:33:32.873Z,15.97
2023-01-10T08:36:00.010Z,14.85
2023-01-10T08:38:27.274Z,13.25
2023-01-10T08:40:57.021Z,12.40
2023-01-10T08:43:24.147Z,16.00
2023-01-10T08:45:51.453Z,13.88
2023-01-10T08:48:18.805Z,14.88
2023-01-10T08:50:45.976Z,13.80
2023-01-10T08:53:13.887Z,15.82
2023-01-10T08:55:41.163Z,15.57
2023-01-10T08:58:08.375Z,14.93
2023-01-10T09:00:35.528Z,14.77
2023-01-10T09:03:02.783Z,13.60
2023-01-10T09:05:30.027Z,15.70
2023-01-10T09:08:01.329Z,14.32
2023-01-10T09:10:29.566Z,15.68
2023-01-10T09:12:59.944Z,14.32
2023-01-10T09:15:28.428Z,14.07
2023-01-10T09:17:56.598Z,14.80
2023-01-10T09:20:24.507Z,14.02
2023-01-10T09:22:51.818Z,14.95
2023-01-10T09:25:19.370Z,12.95
2023-01-10T09:27:46.541Z,12.50
2023-01-10T09:30:14.187Z,13.65
2023-01-10T09:32:41.417Z,11.88
2023-01-10T09:35:08.758Z,13.00
2023-01-10T09:37:37.953Z,11.70
2023-01-10T09:40:06.380Z,14.88
2023-01-10T09:42:33.452Z,11.70
2023-01-10T09:45:17.292Z,11.77
2023-01-10T09:47:56.321Z,12.00
2023-01-10T09:50:45.505Z,14.63
2023-01-10T09:53:14.702Z,13.63
2023-01-10T09:55:42.266Z,14.27
2023-01-10T09:58:13.986Z,13.18
2023-01-10T10:00:46.165Z,15.48
2023-01-10T10:03:36.119Z,14.20
2023-01-10T10:06:12.027Z,15.30
2023-01-10T10:08:44.047Z,15.55
2023-01-10T10:11:26.560Z,13.68
2023-01-10T10:14:02.994Z,12.70
2023-01-10T10:16:33.112Z,12.00
2023-01-10T10:19:04.463Z,13.30
2023-01-10T10:21:47.281Z,11.98
2023-01-10T10:24:25.953Z,12.55
2023-01-10T10:26:59.561Z,12.20
2023-01-10T10:29:32.113Z,12.60
2023-01-10T10:32:20.254Z,13.40
2023-01-10T10:34:57.473Z,11.57
2023-01-10T10:37:43.139Z,13.57
2023-01-10T10:40:21.875Z,12.63
2023-01-10T10:42:52.633Z,13.57
2023-01-10T10:45:44.401Z,15.25
2023-01-10T10:48:26.271Z,14.57
2023-01-10T10:51:06.721Z,13.63
2023-01-10T10:53:34.530Z,12.85
2023-01-10T10:56:03.590Z,11.82
2023-01-10T10:58:32.670Z,13.73
2023-01-10T11:01:00.971Z,14.07
2023-01-10T11:03:43.952Z,11.98
2023-01-10T11:06:11.134Z,12.18
2023-01-10T11:08:44.719Z,11.82
2023-01-10T11:11:31.539Z,12.68
2023-01-10T11:14:03.135Z,11.00
2023-01-10T11:16:33.245Z,11.50
2023-01-10T11:19:16.235Z,10.75
2023-01-10T11:22:06.231Z,11.57
2023-01-10T11:24:36.116Z,10.20
2023-01-10T11:27:16.384Z,10.90
2023-01-10T11:29:56.934Z,11.32
2023-01-10T11:35:38.874Z,10.65
2023-01-10T11:38:18.130Z,10.77
2023-01-10T11:40:55.279Z,11.18
2023-01-10T11:43:33.934Z,12.57
2023-01-10T11:46:16.241Z,9.75
2023-01-10T11:49:08.594Z,11.57
2023-01-10T11:52:06.977Z,10.32
2023-01-10T11:54:34.366Z,11.15
2023-01-10T11:57:14.786Z,12.05
2023-01-10T12:00:16.529Z,11.30
2023-01-10T12:02:44.896Z,10.55
2023-01-10T12:05:19.868Z,10.50
2023-01-10T12:08:06.281Z,12.65
2023-01-10T12:10:35.127Z,10.30
2023-01-10T12:13:15.149Z,9.48
2023-01-10T12:15:42.148Z,9.65
2023-01-10T12:18:12.138Z,9.55
2023-01-10T12:20:50.478Z,8.77
2023-01-10T12:23:20.957Z,8.85
2023-01-10T12:25:50.061Z,8.02
2023-01-10T12:28:21.412Z,8.07
2023-01-10T12:30:52.892Z,7.97
2023-01-10T12:33:46.639Z,7.97
2023-01-10T12:36:54.459Z,9.57
2023-01-10T12:43:35.995Z,8.65
2023-01-10T12:47:00.365Z,8.75
2023-01-10T12:49:24.869Z,11.18
2023-01-10T12:51:54.848Z,6.88
2023-01-10T12:54:25.857Z,6.68
2023-01-10T12:56:54.044Z,7.57
2023-01-10T12:59:37.173Z,7.07
2023-01-10T13:04:36.995Z,5.97
2023-01-10T13:07:04.872Z,5.35
2023-01-10T13:09:32.143Z,5.55
2023-01-10T13:12:11.029Z,5.35
2023-01-10T13:15:19.834Z,6.28
2023-01-10T13:17:51.194Z,6.97
2023-01-10T13:20:24.334Z,5.07
2023-01-10T13:25:34.971Z,5.57
2023-01-10T13:28:06.256Z,5.77
2023-01-10T13:30:40.886Z,6.65
2023-01-10T13:33:32.236Z,5.32
2023-01-10T13:36:21.524Z,6.32
2023-01-10T13:38:52.750Z,6.63
2023-01-10T13:41:38.634Z,7.40
2023-01-10T13:44:13.996Z,5.38
2023-01-10T13:46:46.472Z,5.28
2023-01-10T13:49:13.309Z,5.72
2023-01-10T13:52:00.207Z,6.00
2023-01-10T13:54:28.509Z,6.25
2023-01-10T13:56:55.239Z,6.63
2023-01-10T13:59:46.282Z,5.40
2023-01-10T14:02:29.881Z,5.50
2023-01-10T14:05:18.206Z,5.43
2023-01-10T14:07:50.958Z,5.50
2023-01-10T14:10:25.552Z,5.93
2023-01-10T14:13:09.121Z,6.22
2023-01-10T14:15:43.828Z,5.55
2023-01-10T14:18:21.794Z,6.53
2023-01-10T14:21:03.803Z,6.25
2023-01-10T14:23:42.934Z,5.53
2023-01-10T14:26:26.406Z,5.60
2023-01-10T14:28:53.304Z,5.15
2023-01-10T14:31:25.539Z,5.13
2023-01-10T14:33:53.517Z,5.33
2023-01-10T14:36:52.117Z,5.00
2023-01-10T14:39:20.094Z,5.22
2023-01-10T14:41:52.225Z,6.72
2023-01-10T14:44:31.722Z,4.30
2023-01-10T14:47:04.500Z,4.47
2023-01-10T14:49:36.652Z,4.68
2023-01-10T14:52:24.947Z,4.07
2023-01-10T14:55:02.982Z,4.53
2023-01-10T14:57:29.871Z,4.45
2023-01-10T15:00:05.202Z,4.25
2023-01-10T15:02:32.928Z,4.05
2023-01-10T15:05:09.290Z,4.70
2023-01-10T15:07:37.565Z,4.05
2023-01-10T15:10:22.423Z,4.30
2023-01-10T15:12:51.875Z,3.97
2023-01-10T15:15:21.915Z,4.43
2023-01-10T15:17:49.788Z,4.22
2023-01-10T15:20:19.077Z,3.58
2023-01-10T15:23:00.791Z,3.95
2023-01-10T15:25:38.858Z,4.25
2023-01-10T15:28:19.591Z,3.90
2023-01-10T15:30:46.752Z,3.67
2023-01-10T15:33:17.241Z,3.65
2023-01-10T15:35:44.303Z,4.00
2023-01-10T15:38:16.877Z,3.92
2023-01-10T15:40:44.311Z,3.78
2023-01-10T15:43:11.177Z,3.63
2023-01-10T15:45:39.879Z,3.20
2023-01-10T15:48:36.860Z,3.95
2023-01-10T15:51:49.442Z,3.38
2023-01-10T15:54:28.510Z,3.33
2023-01-10T15:57:16.568Z,3.08
2023-01-10T15:59:50.217Z,3.05
2023-01-10T16:02:32.803Z,2.67
2023-01-10T16:05:12.265Z,3.15
2023-01-10T16:07:45.118Z,3.15
2023-01-10T16:10:26.415Z,4.78
2023-01-10T16:13:12.134Z,3.08
2023-01-10T16:15:44.542Z,2.40
2023-01-10T16:18:13.674Z,3.78
2023-01-10T16:20:45.954Z,3.22
2023-01-10T16:23:25.911Z,3.30
2023-01-10T16:25:59.189Z,4.45
2023-01-10T16:28:29.011Z,3.15
2023-01-10T16:30:55.850Z,2.80
2023-01-10T16:33:27.615Z,3.33
2023-01-10T16:35:57.380Z,2.92
2023-01-10T16:38:25.578Z,3.10
2023-01-10T16:41:00.864Z,2.92
2023-01-10T16:43:29.247Z,3.92
2023-01-10T16:46:00.406Z,2.70
2023-01-10T16:48:32.221Z,3.08
2023-01-10T16:51:26.028Z,2.63
2023-01-10T16:53:53.034Z,2.80
2023-01-10T16:56:22.658Z,3.13
2023-01-10T16:58:50.413Z,2.63
2023-01-10T17:01:41.937Z,2.90
2023-01-10T17:04:11.575Z,2.90
2023-01-10T17:06:40.571Z,3.97
2023-01-10T17:09:11.592Z,2.72
2023-01-10T17:11:42.047Z,3.28
2023-01-10T17:14:14.228Z,3.40
2023-01-10T17:16:41.395Z,2.90
2023-01-10T17:19:08.421Z,4.90
2023-01-10T17:21:35.182Z,2.67
2023-01-10T17:24:01.907Z,3.42
2023-01-10T17:26:28.667Z,2.58
2023-01-10T17:28:55.513Z,2.85
2023-01-10T17:31:22.377Z,3.05
2023-01-10T17:33:49.276Z,3.65
2023-01-10T17:36:18.903Z,3.03
2023-01-10T17:38:46.084Z,3.08
2023-01-10T17:41:12.863Z,3.08
2023-01-10T17:43:39.789Z,3.20
2023-01-10T17:46:06.697Z,2.42
2023-01-10T17:48:34.850Z,2.70
2023-01-10T17:51:03.381Z,3.95
2023-01-10T17:53:30.645Z,2.83
2023-01-10T17:56:00.023Z,2.70
2023-01-10T17:58:28.083Z,2.80
2023-01-10T18:00:55.367Z,3.28
2023-01-10T18:03:33.029Z,3.85
2023-01-10T18:05:59.849Z,3.28
2023-01-10T18:08:27.088Z,4.10
2023-01-10T18:11:00.201Z,2.97
2023-01-10T18:15:58.446Z,3.05
2023-01-10T18:18:27.691Z,2.60
2023-01-10T18:20:57.682Z,3.92
2023-01-10T18:23:26.712Z,3.35
2023-01-10T18:26:05.420Z,3.65
2023-01-10T18:28:42.771Z,3.80
2023-01-10T18:31:13.101Z,3.97
2023-01-10T18:33:40.091Z,3.17
2023-01-10T18:36:14.175Z,3.28
2023-01-10T18:38:41.322Z,2.67
2023-01-10T18:41:08.140Z,3.65
2023-01-10T18:43:35.272Z,3.17
2023-01-10T18:46:08.152Z,3.08
2023-01-10T18:48:35.107Z,3.55
2023-01-10T18:51:03.598Z,3.85
2023-01-10T18:53:30.801Z,3.78
2023-01-10T18:55:59.905Z,2.95
2023-01-10T18:58:29.914Z,2.33
2023-01-10T19:00:56.880Z,4.07
2023-01-10T19:03:23.942Z,3.78
2023-01-10T19:05:50.927Z,2.60
2023-01-10T19:08:17.751Z,3.90
2023-01-10T19:11:11.274Z,2.92
2023-01-10T19:13:32.524Z,3.72
2023-01-10T19:16:29.169Z,2.85
2023-01-10T19:18:59.078Z,3.65
2023-01-10T19:21:27.525Z,3.25
2023-01-10T19:23:55.865Z,3.33
2023-01-10T19:26:24.211Z,3.40
2023-01-10T19:28:51.257Z,3.17
2023-01-10T19:31:27.014Z,4.05
2023-01-10T19:33:54.786Z,3.92
2023-01-10T19:36:22.958Z,4.07
2023-01-10T19:38:55.233Z,3.00
2023-01-10T19:41:22.165Z,2.60
2023-01-10T19:43:53.673Z,3.03
2023-01-10T19:46:20.464Z,3.47
2023-01-10T19:48:47.251Z,2.88
2023-01-10T19:51:14.264Z,4.03
2023-01-10T19:53:44.428Z,3.08
2023-01-10T19:56:12.360Z,3.78
2023-01-10T19:58:39.464Z,3.20
2023-01-10T20:01:11.871Z,4.20
2023-01-10T20:03:42.191Z,4.07
2023-01-10T20:06:11.004Z,3.55
2023-01-10T20:08:38.205Z,4.32
2023-01-10T20:11:06.168Z,3.50
2023-01-10T20:13:37.832Z,3.95
2023-01-10T20:16:05.979Z,4.97
2023-01-10T20:18:33.261Z,3.70
2023-01-10T20:21:03.822Z,4.75
2023-01-10T20:23:35.223Z,3.80
2023-01-10T20:26:22.751Z,4.03
2023-01-10T20:28:50.752Z,3.47
2023-01-10T20:31:22.000Z,4.10
2023-01-10T20:33:49.270Z,4.35
2023-01-10T20:36:18.155Z,3.60
2023-01-10T20:38:45.712Z,5.32
2023-01-10T20:41:15.008Z,3.72
2023-01-10T20:43:42.356Z,3.28
2023-01-10T20:46:13.970Z,4.05
2023-01-10T20:48:41.742Z,3.80
2023-01-10T20:51:11.584Z,3.78
2023-01-10T20:53:39.985Z,3.90
2023-01-10T20:56:08.227Z,3.80
2023-01-10T20:58:35.789Z,3.28
2023-01-10T21:01:03.449Z,3.75
2023-01-10T21:03:30.675Z,3.70
2023-01-10T21:05:59.392Z,3.50
2023-01-10T21:08:29.516Z,3.67
2023-01-10T21:10:56.799Z,3.47
2023-01-10T21:13:25.236Z,3.47
2023-01-10T21:15:54.428Z,3.70
2023-01-10T21:18:25.035Z,2.97
2023-01-10T21:20:54.715Z,3.92
2023-01-10T21:23:25.118Z,3.08
2023-01-10T21:25:52.666Z,3.03
2023-01-10T21:28:20.108Z,3.88
2023-01-10T21:30:47.843Z,2.42
2023-01-10T21:33:15.038Z,3.85
2023-01-10T21:35:42.218Z,2.17
2023-01-10T21:38:09.653Z,2.35
2023-01-10T21:40:37.022Z,2.45
2023-01-10T21:43:04.368Z,2.53
2023-01-10T21:45:32.433Z,3.20
2023-01-10T21:47:59.745Z,2.42
2023-01-10T21:50:29.214Z,2.55
2023-01-10T21:52:56.405Z,2.22
2023-01-10T21:55:23.560Z,2.70
2023-01-10T21:57:50.775Z,2.13
2023-01-10T22:00:18.163Z,2.10
2023-01-10T22:02:45.276Z,2.00
2023-01-10T22:05:12.492Z,1.80
2023-01-10T22:07:39.704Z,2.22
2023-01-10T22:10:08.207Z,1.80
2023-01-10T22:12:36.685Z,1.95
2023-01-10T22:15:04.087Z,1.60
2023-01-10T22:17:31.302Z,1.80
2023-01-10T22:19:58.510Z,1.80
2023-01-10T22:22:25.624Z,1.60
2023-01-10T22:24:52.803Z,2.03
2023-01-10T22:27:20.022Z,2.15
2023-01-10T22:29:47.184Z,1.50
2023-01-10T22:32:14.352Z,1.70
2023-01-10T22:34:41.623Z,1.50
2023-01-10T22:37:08.857Z,1.95
2023-01-10T22:39:36.035Z,1.70
2023-01-10T22:42:03.238Z,1.83
2023-01-10T22:44:30.512Z,1.50
2023-01-10T22:46:57.609Z,1.25
2023-01-10T22:49:24.765Z,1.33
2023-01-10T22:51:51.952Z,1.55
2023-01-10T22:54:19.158Z,1.58
2023-01-10T22:56:47.148Z,1.50
2023-01-10T22:59:14.621Z,1.70
2023-01-10T23:01:42.038Z,1.38
2023-01-10T23:04:09.340Z,1.88
2023-01-10T23:06:36.577Z,1.40
2023-01-10T23:09:03.795Z,1.20
2023-01-10T23:11:30.961Z,1.33
2023-01-10T23:13:58.117Z,1.13
2023-01-10T23:16:32.765Z,1.23
2023-01-10T23:19:00.378Z,1.02
2023-01-10T23:21:30.855Z,1.50
2023-01-10T23:23:58.439Z,1.20
2023-01-10T23:26:25.704Z,1.05
2023-01-10T23:28:53.146Z,1.25
2023-01-10T23:31:23.034Z,1.30
2023-01-10T23:33:50.777Z,1.20
2023-01-10T23:36:18.400Z,1.75
2023-01-10T23:38:45.790Z,1.10
2023-01-10T23:41:12.997Z,1.15
2023-01-10T23:43:40.324Z,1.23
2023-01-10T23:46:07.921Z,1.10
2023-01-10T23:48:35.571Z,1.20
2023-01-10T23:51:02.855Z,1.02
2023-01-10T23:53:29.942Z,1.20
2023-01-10T23:55:58.318Z,1.52
2023-01-10T23:58:25.444Z,1.48
